TAF Text Data
IDs:
Format:
Raw Decoded Include METAR

Data at: 0927 UTC 23 Jan 2019

Region: TOP
KATL 230756Z 2308/2412 10011G17KT P6SM BKN015 OVC050
  FM231000 12012G18KT 5SM -DZ BR BKN004 OVC008
  FM231800 15012G18KT 6SM -DZ BR OVC006
  FM232100 16012G18KT 5SM SHRA BR SCT008 OVC010
  FM240100 20011KT 3SM SHRA BR OVC008
  FM240600 25015KT 4SM SHRA BR OVC006


KBOS 230902Z 2309/2412 20005KT P6SM BKN150
  FM231600 21012G22KT P6SM BKN100
  FM232300 21012KT P6SM OVC045 WS020/22040KT
  FM240200 20012KT P6SM VCSH OVC025 WS020/22040KT
  FM240600 20014G27KT 4SM -RA BR OVC008 WS020/21050KT


KBWI 230855Z 2309/2412 17006KT P6SM OVC200
  FM231400 18010G18KT P6SM BKN025 OVC200
  FM231900 18010G18KT P6SM SCT008 OVC025 WS020/20045KT
  FM240000 18008KT 5SM -DZ BKN008 OVC015 WS020/19050KT
  FM240400 17008KT 3SM -RA BKN008 OVC015 WS020/19050KT
  FM241000 17010G18KT 2SM +RA BKN008 OVC015 WS020/20050KT


KCLE 230550Z 2306/2412 18018G25KT P6SM SCT045 OVC080
  TEMPO 2308/2309 -RA OVC035
  FM230900 18014G22KT 6SM -SHRA BR OVC045
  FM231100 18015G25KT 4SM -RA OVC020
  FM231500 19015G25KT 2SM -RA BR OVC006
  FM232000 23015G25KT 4SM -RA BR OVC008
  FM240300 26012G20KT P6SM OVC020


KCLT 230539Z 2306/2412 10004KT P6SM OVC024
  TEMPO 2308/2311 4SM -FZDZ SCT007 OVC015
  FM231100 06004KT P6SM -FZDZ OVC015
  FM231300 08004KT 6SM -RA BR BKN007 OVC011
  FM231600 11004KT P6SM -SHRA OVC007
  PROB30 2319/2324 2SM -RA BR OVC003
  FM240000 16008KT 3SM -SHRA OVC004 WS020/18040KT
  FM240700 19012KT 2SM SHRA BKN003 OVC010


KCVG 230716Z 2307/2412 18013KT P6SM OVC070 WS020/20045KT
  FM230800 18014G24KT P6SM -RA OVC040 WS020/20050KT
  FM231300 19014G22KT 5SM RA BR OVC025 WS020/21055KT
  FM231600 21014G24KT 5SM RA BR OVC015 WS020/21050KT
  FM232100 25012G20KT 5SM -RA BR OVC015
  FM240100 28010KT P6SM VCSH OVC008
  FM241100 29007KT P6SM OVC015


KDCA 230855Z 2309/2412 17008G16KT P6SM OVC200
  FM231400 19010G18KT P6SM BKN025 OVC200
  FM231900 18010G18KT P6SM SCT008 OVC025 WS020/20045KT
  FM232300 18008KT 5SM -DZ BKN008 OVC015 WS020/19050KT
  FM240400 17005KT 3SM -RA BKN008 OVC015 WS020/19050KT
  FM241000 17012G20KT 2SM +RA SCT008 OVC015 WS020/20040KT


KDEN 230921Z 2309/2412 22012KT P6SM FEW220
  FM231600 28010KT P6SM SCT120 BKN220
  FM231800 32012KT P6SM BKN120 BKN220
  FM240100 23008KT P6SM BKN080 OVC120
  FM240600 02009KT P6SM SCT030 BKN060


KDFW 230902Z 2309/2412 33023G33KT P6SM SCT035 BKN110
  FM231400 33017KT P6SM SKC
  FM232300 30008KT P6SM SKC
  FM240300 22006KT P6SM SCT250


KDTW 230854Z 2309/2412 16006KT 2SM RA BR BKN006 OVC022
  FM231300 19012KT 2SM -SHRA BR BKN008 OVC018
  FM232100 24012G20KT P6SM OVC015
  FM240300 27010KT P6SM BKN028


KEWR 230803Z 2308/2412 19010KT P6SM SCT100 BKN250
  FM231200 19010KT P6SM SCT040 BKN150
  FM231500 20010KT P6SM SCT025 BKN050
  FM232100 20007KT P6SM VCSH BKN025 OVC040 WS020/21045KT
  FM240000 20007KT P6SM VCSH SCT015 BKN025 WS020/21045KT
  FM240300 20008KT 5SM -RA BR SCT007 BKN015 WS020/21045KT
  FM240900 17012KT 2SM RA BR OVC007 WS020/20050KT


KFLL 230904Z 2309/2412 11020KT P6SM SCT030 BKN050
  FM231400 13020KT P6SM BKN045


KIAD 230855Z 2309/2412 17008G16KT P6SM OVC200
  FM231400 19010G18KT P6SM BKN025 OVC200
  FM231900 18010G18KT P6SM SCT008 OVC025 WS020/20045KT
  FM232300 18008KT 5SM -DZ BKN008 OVC015 WS020/19050KT
  FM240300 VRB04KT 3SM -RA BKN008 OVC015 WS020/19050KT
  FM240900 17010G18KT 2SM +RA BKN008 OVC015 WS020/20050KT


KIAH 230827Z 2308/2412 35012KT 6SM RA BR SCT009 OVC045
  TEMPO 2308/2309 BKN008
  FM231000 33014G27KT 6SM -RA BR OVC025
  FM231200 34016G26KT P6SM -RA OVC040
  FM231500 33016G25KT P6SM BKN090
  FM231800 34012G20KT P6SM SKC
  FM232300 36007KT P6SM SKC


KJFK 230803Z 2308/2412 21012KT P6SM SCT100 BKN250
  FM231300 20010KT P6SM SCT040 BKN150
  FM231600 21014G19KT P6SM SCT025 BKN050
  FM232100 19012KT P6SM VCSH SCT025 OVC040 WS020/21045KT
  FM240000 19014KT P6SM VCSH SCT015 BKN025 WS020/21050KT
  FM240300 19015KT 5SM -RA BR SCT007 BKN015 WS020/21050KT
  FM240900 17019KT 2SM RA BR OVC007 WS020/20055KT


KLAS 230837Z 2309/2412 VRB04KT P6SM FEW250
  FM231700 VRB04KT P6SM SCT250
  FM240400 22005KT P6SM SCT250


KLAX 230905Z 2309/2412 35006KT P6SM SCT250
  FM232100 26010KT P6SM SKC
  FM240400 VRB03KT P6SM SKC


KLGA 230803Z 2308/2412 21011KT P6SM SCT100 BKN250
  FM231300 20010KT P6SM SCT040 BKN150
  FM231600 22012KT P6SM SCT025 BKN050
  FM232100 20010KT P6SM VCSH BKN025 OVC040 WS020/21045KT
  FM240000 19014KT P6SM VCSH SCT015 BKN025 WS020/21045KT
  FM240300 19012KT 5SM -RA BR SCT007 BKN015 WS020/21050KT
  FM240900 17017KT 2SM RA BR OVC007 WS020/20055KT


KMCO 230909Z 2309/2412 12006KT P6SM SCT045
  FM231430 14014G22KT P6SM BKN045 BKN250
  FM240000 17010KT P6SM SCT040 BKN150
  FM240400 18007KT P6SM VCSH SCT030 BKN100
  TEMPO 2405/2409 4SM SHRA BKN030 BKN070


KMDW 230846Z 2309/2412 15004KT 1 1/2SM -RA BR OVC004
  TEMPO 2310/2313 1SM -RA BR OVC003
  FM231300 35004KT 1 1/2SM -RA BR OVC004
  FM231600 33010KT 2SM -SHSN OVC008
  FM231800 30012G20KT P6SM OVC015
  FM240000 30009KT P6SM BKN025


KMEM 230900Z 2309/2412 17021G31KT P6SM -RA SCT018 OVC100
  TEMPO 2310/2312 6SM -RA BR BKN018
  FM231200 21016G24KT 4SM -RA BR OVC015
  FM231500 31012G19KT 5SM -RA OVC012
  FM231900 32012KT P6SM VCSH OVC015
  FM240000 32008KT P6SM BKN020
  FM240500 30006KT P6SM FEW020 SCT250


KMIA 230904Z 2309/2412 11020KT P6SM SCT040 BKN050
  FM231400 13020KT P6SM BKN050


KMSP 230911Z 2309/2412 32004KT P6SM -SHSN OVC035
  FM231200 26005KT P6SM OVC022
  FM231900 24006KT P6SM SCT025 BKN060
  FM240900 31015G30KT P6SM -SHSN BKN020


KORD 230849Z 2309/2412 07005KT 1SM -RA BR OVC003
  FM231100 03005KT 1 1/2SM -RASN BR OVC004
  FM231400 35007KT 2SM -SN BR OVC006
  FM231600 33010KT 4SM -SHSN OVC008
  FM231800 30012G20KT P6SM OVC012
  FM240000 30009KT P6SM BKN025


KPDX 230822Z 2308/2406 19015G22KT P6SM -RA SCT015 OVC040
  FM231000 19013KT P6SM -SHRA OVC015
  FM231400 19010KT P6SM OVC020
  FM231900 23007KT P6SM OVC022


KPHL 230927Z 2309/2412 19007KT P6SM OVC150
  FM231400 19007KT P6SM OVC070
  FM231700 19009KT P6SM OVC040
  FM232100 19010KT P6SM OVC035 WS020/20040KT
  FM240000 19009KT P6SM OVC025 WS020/20045KT
  FM240600 19009KT 5SM -RA BR OVC007 WS020/20045KT


KPHX 230830Z 2309/2412 07004KT P6SM SKC
  FM232100 27005KT P6SM SKC
  FM240500 07005KT P6SM FEW250


KPIT 230556Z 2306/2412 17010KT P6SM SCT050 WS020/22045KT
  FM231500 19010KT P6SM -RA OVC045 WS020/21045KT
  FM231900 20010KT 5SM -RA OVC025 WS020/21040KT
  FM240000 21008KT 3SM -RA OVC015 WS020/22040KT
  FM240200 23008KT 2SM -RA OVC008 WS020/23040KT
  FM240600 28008KT 2SM -RASN OVC008


KSAN 230906Z 2309/2412 05005KT P6SM SKC
  FM232200 30007KT P6SM SKC
  FM240200 VRB03KT P6SM SKC


KSEA 230905Z 2309/2412 20015G25KT 2SM -RA BR BKN008 OVC013
  FM231200 20012G20KT 2SM BR BKN008 OVC013
  FM231400 20012KT 4SM BR SCT010 OVC015
  FM231800 21007KT P6SM OVC015
  FM240000 15005KT 6SM BR OVC010


KSFO 230901Z 2309/2412 VRB03KT P6SM FEW200
  FM232300 30008KT P6SM SCT200
  FM240600 31004KT P6SM SCT200


KSLC 230841Z 2309/2412 16008KT P6SM BKN200
  FM231300 16007KT P6SM VCSH SCT030 OVC060
  FM232100 18007KT 6SM -SHSN SCT020 OVC040
  FM240900 16007KT P6SM SCT040 BKN070


KSTL 230817Z 2308/2412 18006KT 5SM -RA BR OVC020
  FM231000 25012KT 6SM -RA BR OVC010
  FM231200 27013G23KT P6SM OVC006
  FM231500 31011G20KT P6SM OVC015
  FM232000 31010G20KT P6SM OVC022
  FM240000 31009KT P6SM BKN035


KTPA 230858Z 2309/2412 11008KT P6SM BKN050
  FM231600 14010KT P6SM SCT050 BKN250
  FM231800 16013G21KT P6SM SCT050 BKN100
  FM232200 17009KT P6SM BKN050 BKN100
  FM240800 18011G21KT P6SM VCTS FEW025CB BKN045 OVC100